sensor_id;sensor_type;location;lat;lon;timestamp;P1;durP1;ratioP1;P2;durP2;ratioP2
38379;SDS011;38377;47.418;18.882;2022-11-04T00:01:51;47.58;;;25.83;;
38379;SDS011;38377;47.418;18.882;2022-11-04T00:04:18;46.17;;;26.42;;
38379;SDS011;38377;47.418;18.882;2022-11-04T00:06:45;46.10;;;27.88;;
38379;SDS011;38377;47.418;18.882;2022-11-04T00:09:12;45.75;;;26.40;;
38379;SDS011;38377;47.418;18.882;2022-11-04T00:11:50;45.60;;;26.10;;
38379;SDS011;38377;47.418;18.882;2022-11-04T00:14:34;45.70;;;26.42;;
38379;SDS011;38377;47.418;18.882;2022-11-04T00:17:00;44.15;;;26.02;;
38379;SDS011;38377;47.418;18.882;2022-11-04T00:19:47;47.47;;;27.85;;
38379;SDS011;38377;47.418;18.882;2022-11-04T00:22:32;43.40;;;25.73;;
38379;SDS011;38377;47.418;18.882;2022-11-04T00:25:18;44.25;;;25.85;;
38379;SDS011;38377;47.418;18.882;2022-11-04T00:28:08;47.35;;;27.73;;
38379;SDS011;38377;47.418;18.882;2022-11-04T00:30:58;48.05;;;28.33;;
38379;SDS011;38377;47.418;18.882;2022-11-04T00:33:47;48.10;;;25.95;;
38379;SDS011;38377;47.418;18.882;2022-11-04T00:36:14;48.73;;;26.53;;
38379;SDS011;38377;47.418;18.882;2022-11-04T00:38:40;47.72;;;26.98;;
38379;SDS011;38377;47.418;18.882;2022-11-04T00:41:06;47.97;;;26.55;;
38379;SDS011;38377;47.418;18.882;2022-11-04T00:43:50;45.25;;;27.60;;
38379;SDS011;38377;47.418;18.882;2022-11-04T00:46:20;38.17;;;21.77;;
38379;SDS011;38377;47.418;18.882;2022-11-04T00:48:46;51.92;;;28.92;;
38379;SDS011;38377;47.418;18.882;2022-11-04T00:51:12;47.10;;;26.85;;
38379;SDS011;38377;47.418;18.882;2022-11-04T00:53:38;50.72;;;27.95;;
38379;SDS011;38377;47.418;18.882;2022-11-04T00:56:04;49.72;;;27.67;;
38379;SDS011;38377;47.418;18.882;2022-11-04T00:58:30;57.50;;;28.35;;
38379;SDS011;38377;47.418;18.882;2022-11-04T01:00:55;47.10;;;26.65;;
38379;SDS011;38377;47.418;18.882;2022-11-04T01:03:21;46.42;;;26.35;;
38379;SDS011;38377;47.418;18.882;2022-11-04T01:05:47;46.58;;;25.45;;
38379;SDS011;38377;47.418;18.882;2022-11-04T01:08:12;49.50;;;27.02;;
38379;SDS011;38377;47.418;18.882;2022-11-04T01:10:38;45.15;;;25.20;;
38379;SDS011;38377;47.418;18.882;2022-11-04T01:13:11;46.67;;;25.65;;
38379;SDS011;38377;47.418;18.882;2022-11-04T01:15:37;48.45;;;26.38;;
38379;SDS011;38377;47.418;18.882;2022-11-04T01:18:04;45.35;;;26.23;;
38379;SDS011;38377;47.418;18.882;2022-11-04T01:20:31;44.83;;;25.95;;
38379;SDS011;38377;47.418;18.882;2022-11-04T01:22:57;46.70;;;26.85;;
38379;SDS011;38377;47.418;18.882;2022-11-04T01:25:23;49.92;;;26.20;;
38379;SDS011;38377;47.418;18.882;2022-11-04T01:27:49;45.63;;;24.38;;
38379;SDS011;38377;47.418;18.882;2022-11-04T01:30:14;43.85;;;25.80;;
38379;SDS011;38377;47.418;18.882;2022-11-04T01:32:40;46.42;;;26.42;;
38379;SDS011;38377;47.418;18.882;2022-11-04T01:35:06;47.60;;;25.58;;
38379;SDS011;38377;47.418;18.882;2022-11-04T01:37:33;47.95;;;28.13;;
38379;SDS011;38377;47.418;18.882;2022-11-04T01:39:59;46.85;;;25.58;;
38379;SDS011;38377;47.418;18.882;2022-11-04T01:42:24;49.28;;;26.67;;
38379;SDS011;38377;47.418;18.882;2022-11-04T01:44:55;53.95;;;26.58;;
38379;SDS011;38377;47.418;18.882;2022-11-04T01:50:07;47.40;;;26.65;;
38379;SDS011;38377;47.418;18.882;2022-11-04T01:52:51;49.28;;;26.63;;
38379;SDS011;38377;47.418;18.882;2022-11-04T01:55:22;49.35;;;26.35;;
38379;SDS011;38377;47.418;18.882;2022-11-04T01:57:52;42.22;;;24.95;;
38379;SDS011;38377;47.418;18.882;2022-11-04T02:00:23;44.25;;;24.88;;
38379;SDS011;38377;47.418;18.882;2022-11-04T02:02:58;48.63;;;26.95;;
38379;SDS011;38377;47.418;18.882;2022-11-04T02:05:29;54.22;;;28.15;;
38379;SDS011;38377;47.418;18.882;2022-11-04T02:07:55;52.28;;;26.80;;
38379;SDS011;38377;47.418;18.882;2022-11-04T02:10:27;54.10;;;28.40;;
38379;SDS011;38377;47.418;18.882;2022-11-04T02:12:54;53.00;;;27.90;;
38379;SDS011;38377;47.418;18.882;2022-11-04T02:15:42;50.60;;;29.05;;
38379;SDS011;38377;47.418;18.882;2022-11-04T02:21:26;55.83;;;28.33;;
38379;SDS011;38377;47.418;18.882;2022-11-04T02:31:49;51.92;;;28.02;;
38379;SDS011;38377;47.418;18.882;2022-11-04T02:34:24;55.70;;;30.35;;
38379;SDS011;38377;47.418;18.882;2022-11-04T02:36:57;60.58;;;30.50;;
38379;SDS011;38377;47.418;18.882;2022-11-04T02:42:11;58.85;;;30.63;;
38379;SDS011;38377;47.418;18.882;2022-11-04T02:44:48;54.88;;;28.27;;
38379;SDS011;38377;47.418;18.882;2022-11-04T02:47:23;54.72;;;29.52;;
38379;SDS011;38377;47.418;18.882;2022-11-04T02:52:41;66.60;;;32.03;;
38379;SDS011;38377;47.418;18.882;2022-11-04T02:55:13;74.05;;;33.08;;
38379;SDS011;38377;47.418;18.882;2022-11-04T02:57:43;63.63;;;33.65;;
38379;SDS011;38377;47.418;18.882;2022-11-04T03:00:12;64.25;;;30.25;;
38379;SDS011;38377;47.418;18.882;2022-11-04T03:02:39;76.25;;;34.55;;
38379;SDS011;38377;47.418;18.882;2022-11-04T03:05:29;73.43;;;35.53;;
38379;SDS011;38377;47.418;18.882;2022-11-04T03:08:00;64.32;;;29.08;;
38379;SDS011;38377;47.418;18.882;2022-11-04T03:10:32;67.72;;;32.33;;
38379;SDS011;38377;47.418;18.882;2022-11-04T03:13:10;74.50;;;31.95;;
38379;SDS011;38377;47.418;18.882;2022-11-04T03:15:39;77.80;;;34.10;;
38379;SDS011;38377;47.418;18.882;2022-11-04T03:21:08;72.90;;;33.47;;
38379;SDS011;38377;47.418;18.882;2022-11-04T03:23:37;78.20;;;36.38;;
38379;SDS011;38377;47.418;18.882;2022-11-04T03:26:06;79.82;;;36.50;;
38379;SDS011;38377;47.418;18.882;2022-11-04T03:28:44;75.75;;;34.47;;
38379;SDS011;38377;47.418;18.882;2022-11-04T03:31:20;75.05;;;34.75;;
38379;SDS011;38377;47.418;18.882;2022-11-04T03:33:51;69.70;;;33.67;;
38379;SDS011;38377;47.418;18.882;2022-11-04T03:36:19;67.63;;;34.03;;
38379;SDS011;38377;47.418;18.882;2022-11-04T03:38:47;65.75;;;30.77;;
38379;SDS011;38377;47.418;18.882;2022-11-04T03:41:17;58.97;;;30.95;;
38379;SDS011;38377;47.418;18.882;2022-11-04T03:43:49;56.55;;;29.60;;
38379;SDS011;38377;47.418;18.882;2022-11-04T03:46:15;61.80;;;30.67;;
38379;SDS011;38377;47.418;18.882;2022-11-04T03:48:41;56.85;;;31.00;;
38379;SDS011;38377;47.418;18.882;2022-11-04T03:51:09;55.47;;;29.15;;
38379;SDS011;38377;47.418;18.882;2022-11-04T03:53:36;60.38;;;30.27;;
38379;SDS011;38377;47.418;18.882;2022-11-04T03:56:07;66.10;;;30.83;;
38379;SDS011;38377;47.418;18.882;2022-11-04T04:06:57;62.22;;;30.63;;
38379;SDS011;38377;47.418;18.882;2022-11-04T04:09:36;65.85;;;32.75;;
38379;SDS011;38377;47.418;18.882;2022-11-04T04:12:19;62.72;;;32.80;;
38379;SDS011;38377;47.418;18.882;2022-11-04T04:17:35;69.60;;;34.28;;
38379;SDS011;38377;47.418;18.882;2022-11-04T04:20:11;69.35;;;33.67;;
38379;SDS011;38377;47.418;18.882;2022-11-04T04:22:43;72.22;;;34.60;;
38379;SDS011;38377;47.418;18.882;2022-11-04T04:25:16;76.00;;;35.45;;
38379;SDS011;38377;47.418;18.882;2022-11-04T04:28:02;73.45;;;36.30;;
38379;SDS011;38377;47.418;18.882;2022-11-04T04:30:29;72.78;;;35.00;;
38379;SDS011;38377;47.418;18.882;2022-11-04T04:32:59;77.10;;;39.20;;
38379;SDS011;38377;47.418;18.882;2022-11-04T04:35:33;77.40;;;36.63;;
38379;SDS011;38377;47.418;18.882;2022-11-04T04:38:13;71.45;;;38.13;;
38379;SDS011;38377;47.418;18.882;2022-11-04T04:44:19;73.25;;;36.10;;
38379;SDS011;38377;47.418;18.882;2022-11-04T04:47:08;82.55;;;39.17;;
38379;SDS011;38377;47.418;18.882;2022-11-04T04:49:36;81.57;;;39.50;;
38379;SDS011;38377;47.418;18.882;2022-11-04T04:52:12;85.70;;;40.00;;
38379;SDS011;38377;47.418;18.882;2022-11-04T04:54:38;76.95;;;39.63;;
38379;SDS011;38377;47.418;18.882;2022-11-04T04:57:04;75.85;;;37.95;;
38379;SDS011;38377;47.418;18.882;2022-11-04T04:59:30;85.65;;;40.88;;
38379;SDS011;38377;47.418;18.882;2022-11-04T05:01:55;84.53;;;40.58;;
38379;SDS011;38377;47.418;18.882;2022-11-04T05:04:21;79.10;;;39.22;;
38379;SDS011;38377;47.418;18.882;2022-11-04T05:06:47;86.05;;;41.33;;
38379;SDS011;38377;47.418;18.882;2022-11-04T05:09:12;89.60;;;39.88;;
38379;SDS011;38377;47.418;18.882;2022-11-04T05:11:38;85.28;;;42.35;;
38379;SDS011;38377;47.418;18.882;2022-11-04T05:14:04;88.25;;;40.95;;
38379;SDS011;38377;47.418;18.882;2022-11-04T05:16:29;90.70;;;44.58;;
38379;SDS011;38377;47.418;18.882;2022-11-04T05:18:55;92.40;;;44.65;;
38379;SDS011;38377;47.418;18.882;2022-11-04T05:21:21;92.63;;;43.33;;
38379;SDS011;38377;47.418;18.882;2022-11-04T05:23:46;90.93;;;44.67;;
38379;SDS011;38377;47.418;18.882;2022-11-04T05:26:12;89.22;;;42.85;;
38379;SDS011;38377;47.418;18.882;2022-11-04T05:28:38;94.85;;;43.70;;
38379;SDS011;38377;47.418;18.882;2022-11-04T05:31:05;85.40;;;41.22;;
38379;SDS011;38377;47.418;18.882;2022-11-04T05:33:31;103.30;;;46.17;;
38379;SDS011;38377;47.418;18.882;2022-11-04T05:36:07;101.40;;;49.47;;
38379;SDS011;38377;47.418;18.882;2022-11-04T05:38:34;129.63;;;65.53;;
38379;SDS011;38377;47.418;18.882;2022-11-04T05:41:00;97.85;;;47.97;;
38379;SDS011;38377;47.418;18.882;2022-11-04T05:43:25;95.90;;;44.97;;
38379;SDS011;38377;47.418;18.882;2022-11-04T05:45:51;104.47;;;48.42;;
38379;SDS011;38377;47.418;18.882;2022-11-04T05:48:17;91.82;;;41.20;;
38379;SDS011;38377;47.418;18.882;2022-11-04T05:50:43;98.00;;;46.05;;
38379;SDS011;38377;47.418;18.882;2022-11-04T05:53:08;115.57;;;46.58;;
38379;SDS011;38377;47.418;18.882;2022-11-04T05:55:34;96.57;;;43.80;;
38379;SDS011;38377;47.418;18.882;2022-11-04T05:58:00;91.25;;;42.90;;
38379;SDS011;38377;47.418;18.882;2022-11-04T06:00:26;107.22;;;44.35;;
38379;SDS011;38377;47.418;18.882;2022-11-04T06:02:52;103.50;;;47.10;;
38379;SDS011;38377;47.418;18.882;2022-11-04T06:05:21;113.75;;;47.58;;
38379;SDS011;38377;47.418;18.882;2022-11-04T06:07:47;105.90;;;46.65;;
38379;SDS011;38377;47.418;18.882;2022-11-04T06:10:13;112.63;;;46.85;;
38379;SDS011;38377;47.418;18.882;2022-11-04T06:12:38;108.20;;;46.78;;
38379;SDS011;38377;47.418;18.882;2022-11-04T06:15:04;109.43;;;44.72;;
38379;SDS011;38377;47.418;18.882;2022-11-04T06:17:30;115.32;;;47.55;;
38379;SDS011;38377;47.418;18.882;2022-11-04T06:19:56;108.53;;;47.05;;
38379;SDS011;38377;47.418;18.882;2022-11-04T06:22:22;117.32;;;47.35;;
38379;SDS011;38377;47.418;18.882;2022-11-04T06:24:47;126.55;;;49.80;;
38379;SDS011;38377;47.418;18.882;2022-11-04T06:27:13;114.82;;;47.28;;
38379;SDS011;38377;47.418;18.882;2022-11-04T06:29:39;129.18;;;48.30;;
38379;SDS011;38377;47.418;18.882;2022-11-04T06:32:09;117.93;;;47.53;;
38379;SDS011;38377;47.418;18.882;2022-11-04T06:34:37;127.03;;;50.72;;
38379;SDS011;38377;47.418;18.882;2022-11-04T06:37:03;136.85;;;52.33;;
38379;SDS011;38377;47.418;18.882;2022-11-04T06:39:29;132.88;;;53.13;;
38379;SDS011;38377;47.418;18.882;2022-11-04T06:41:55;133.18;;;54.20;;
38379;SDS011;38377;47.418;18.882;2022-11-04T06:44:21;100.88;;;43.97;;
38379;SDS011;38377;47.418;18.882;2022-11-04T06:46:48;115.38;;;46.30;;
38379;SDS011;38377;47.418;18.882;2022-11-04T06:49:14;115.57;;;48.10;;
38379;SDS011;38377;47.418;18.882;2022-11-04T06:51:42;125.18;;;50.53;;
38379;SDS011;38377;47.418;18.882;2022-11-04T06:54:08;100.65;;;41.38;;
38379;SDS011;38377;47.418;18.882;2022-11-04T06:56:35;104.60;;;41.42;;
38379;SDS011;38377;47.418;18.882;2022-11-04T06:59:01;97.88;;;40.58;;
38379;SDS011;38377;47.418;18.882;2022-11-04T07:01:28;106.13;;;41.78;;
38379;SDS011;38377;47.418;18.882;2022-11-04T07:03:57;102.32;;;41.42;;
38379;SDS011;38377;47.418;18.882;2022-11-04T07:06:24;106.38;;;41.80;;
38379;SDS011;38377;47.418;18.882;2022-11-04T07:08:51;110.40;;;42.80;;
38379;SDS011;38377;47.418;18.882;2022-11-04T07:11:18;78.47;;;34.45;;
38379;SDS011;38377;47.418;18.882;2022-11-04T07:13:45;99.65;;;45.38;;
38379;SDS011;38377;47.418;18.882;2022-11-04T07:16:12;102.85;;;43.28;;
38379;SDS011;38377;47.418;18.882;2022-11-04T07:18:39;117.22;;;46.90;;
38379;SDS011;38377;47.418;18.882;2022-11-04T07:21:05;100.32;;;45.00;;
38379;SDS011;38377;47.418;18.882;2022-11-04T07:23:32;114.57;;;47.03;;
38379;SDS011;38377;47.418;18.882;2022-11-04T07:26:02;121.55;;;49.78;;
38379;SDS011;38377;47.418;18.882;2022-11-04T07:28:30;118.78;;;46.97;;
38379;SDS011;38377;47.418;18.882;2022-11-04T07:30:56;96.95;;;41.60;;
38379;SDS011;38377;47.418;18.882;2022-11-04T07:33:23;109.05;;;46.30;;
38379;SDS011;38377;47.418;18.882;2022-11-04T07:35:50;120.78;;;45.28;;
38379;SDS011;38377;47.418;18.882;2022-11-04T07:38:17;117.38;;;45.42;;
38379;SDS011;38377;47.418;18.882;2022-11-04T07:40:43;107.88;;;44.85;;
38379;SDS011;38377;47.418;18.882;2022-11-04T07:43:08;108.65;;;46.08;;
38379;SDS011;38377;47.418;18.882;2022-11-04T07:45:34;96.50;;;42.58;;
38379;SDS011;38377;47.418;18.882;2022-11-04T07:48:00;116.88;;;47.80;;
38379;SDS011;38377;47.418;18.882;2022-11-04T07:50:25;111.03;;;48.72;;
38379;SDS011;38377;47.418;18.882;2022-11-04T07:52:51;118.22;;;47.50;;
38379;SDS011;38377;47.418;18.882;2022-11-04T07:55:17;109.80;;;47.72;;
38379;SDS011;38377;47.418;18.882;2022-11-04T07:57:43;112.40;;;46.97;;
38379;SDS011;38377;47.418;18.882;2022-11-04T08:00:10;108.20;;;48.75;;
38379;SDS011;38377;47.418;18.882;2022-11-04T08:02:36;125.82;;;52.17;;
38379;SDS011;38377;47.418;18.882;2022-11-04T08:05:02;116.82;;;46.63;;
38379;SDS011;38377;47.418;18.882;2022-11-04T08:07:30;104.53;;;46.33;;
38379;SDS011;38377;47.418;18.882;2022-11-04T08:09:56;107.15;;;46.90;;
38379;SDS011;38377;47.418;18.882;2022-11-04T08:12:22;103.68;;;46.00;;
38379;SDS011;38377;47.418;18.882;2022-11-04T08:14:48;101.85;;;45.75;;
38379;SDS011;38377;47.418;18.882;2022-11-04T08:17:15;105.80;;;47.75;;
38379;SDS011;38377;47.418;18.882;2022-11-04T08:19:41;115.60;;;48.92;;
38379;SDS011;38377;47.418;18.882;2022-11-04T08:22:07;113.85;;;49.83;;
38379;SDS011;38377;47.418;18.882;2022-11-04T08:24:33;109.32;;;48.50;;
38379;SDS011;38377;47.418;18.882;2022-11-04T08:27:00;108.32;;;48.47;;
38379;SDS011;38377;47.418;18.882;2022-11-04T08:29:26;95.25;;;45.97;;
38379;SDS011;38377;47.418;18.882;2022-11-04T08:31:52;140.18;;;55.10;;
38379;SDS011;38377;47.418;18.882;2022-11-04T08:34:17;103.28;;;50.05;;
38379;SDS011;38377;47.418;18.882;2022-11-04T08:36:43;111.93;;;48.00;;
38379;SDS011;38377;47.418;18.882;2022-11-04T08:39:10;101.32;;;48.92;;
38379;SDS011;38377;47.418;18.882;2022-11-04T08:41:36;90.00;;;44.38;;
38379;SDS011;38377;47.418;18.882;2022-11-04T08:44:05;87.53;;;43.30;;
38379;SDS011;38377;47.418;18.882;2022-11-04T08:46:35;85.47;;;43.92;;
38379;SDS011;38377;47.418;18.882;2022-11-04T08:49:03;84.25;;;41.50;;
38379;SDS011;38377;47.418;18.882;2022-11-04T08:51:30;91.50;;;43.70;;
38379;SDS011;38377;47.418;18.882;2022-11-04T08:53:57;87.13;;;43.75;;
38379;SDS011;38377;47.418;18.882;2022-11-04T08:56:24;89.00;;;44.28;;
38379;SDS011;38377;47.418;18.882;2022-11-04T08:58:52;87.20;;;45.13;;
38379;SDS011;38377;47.418;18.882;2022-11-04T09:01:19;93.40;;;46.53;;
38379;SDS011;38377;47.418;18.882;2022-11-04T09:03:45;91.43;;;46.00;;
38379;SDS011;38377;47.418;18.882;2022-11-04T09:06:13;100.20;;;47.30;;
38379;SDS011;38377;47.418;18.882;2022-11-04T09:08:41;101.63;;;51.50;;
38379;SDS011;38377;47.418;18.882;2022-11-04T09:11:08;92.03;;;47.22;;
38379;SDS011;38377;47.418;18.882;2022-11-04T09:13:36;87.80;;;45.45;;
38379;SDS011;38377;47.418;18.882;2022-11-04T09:16:03;92.93;;;47.20;;
38379;SDS011;38377;47.418;18.882;2022-11-04T09:18:30;94.82;;;48.38;;
38379;SDS011;38377;47.418;18.882;2022-11-04T09:20:58;101.05;;;51.00;;
38379;SDS011;38377;47.418;18.882;2022-11-04T09:23:25;95.43;;;47.72;;
38379;SDS011;38377;47.418;18.882;2022-11-04T09:25:51;87.85;;;49.03;;
38379;SDS011;38377;47.418;18.882;2022-11-04T09:28:16;88.38;;;47.67;;
38379;SDS011;38377;47.418;18.882;2022-11-04T09:30:42;86.00;;;45.85;;
38379;SDS011;38377;47.418;18.882;2022-11-04T09:33:08;85.65;;;46.58;;
38379;SDS011;38377;47.418;18.882;2022-11-04T09:35:34;74.80;;;41.72;;
38379;SDS011;38377;47.418;18.882;2022-11-04T09:37:59;88.13;;;47.78;;
38379;SDS011;38377;47.418;18.882;2022-11-04T09:40:26;91.35;;;47.03;;
38379;SDS011;38377;47.418;18.882;2022-11-04T09:46:15;84.80;;;43.08;;
38379;SDS011;38377;47.418;18.882;2022-11-04T09:48:42;89.07;;;44.15;;
38379;SDS011;38377;47.418;18.882;2022-11-04T09:51:12;88.32;;;45.85;;
38379;SDS011;38377;47.418;18.882;2022-11-04T09:53:43;95.53;;;47.05;;
38379;SDS011;38377;47.418;18.882;2022-11-04T09:56:20;92.88;;;46.83;;
38379;SDS011;38377;47.418;18.882;2022-11-04T09:58:48;88.47;;;44.75;;
38379;SDS011;38377;47.418;18.882;2022-11-04T10:01:31;82.85;;;42.88;;
38379;SDS011;38377;47.418;18.882;2022-11-04T10:25:58;93.10;;;47.53;;
38379;SDS011;38377;47.418;18.882;2022-11-04T10:31:53;92.13;;;45.92;;
38379;SDS011;38377;47.418;18.882;2022-11-04T10:34:27;94.65;;;48.92;;
38379;SDS011;38377;47.418;18.882;2022-11-04T10:37:00;84.38;;;46.45;;
38379;SDS011;38377;47.418;18.882;2022-11-04T10:39:29;91.63;;;48.22;;
38379;SDS011;38377;47.418;18.882;2022-11-04T10:41:58;91.50;;;46.92;;
38379;SDS011;38377;47.418;18.882;2022-11-04T10:44:25;88.28;;;47.90;;
38379;SDS011;38377;47.418;18.882;2022-11-04T10:52:35;82.15;;;46.00;;
38379;SDS011;38377;47.418;18.882;2022-11-04T10:55:02;84.78;;;48.97;;
38379;SDS011;38377;47.418;18.882;2022-11-04T10:57:39;97.97;;;49.42;;
38379;SDS011;38377;47.418;18.882;2022-11-04T11:00:04;87.18;;;47.65;;
38379;SDS011;38377;47.418;18.882;2022-11-04T11:02:41;86.50;;;47.05;;
38379;SDS011;38377;47.418;18.882;2022-11-04T11:05:13;82.43;;;46.05;;
38379;SDS011;38377;47.418;18.882;2022-11-04T11:07:45;88.50;;;49.78;;
38379;SDS011;38377;47.418;18.882;2022-11-04T11:10:20;83.97;;;46.92;;
38379;SDS011;38377;47.418;18.882;2022-11-04T11:15:44;88.60;;;47.67;;
38379;SDS011;38377;47.418;18.882;2022-11-04T11:18:17;87.85;;;49.15;;
38379;SDS011;38377;47.418;18.882;2022-11-04T11:21:06;87.65;;;47.67;;
38379;SDS011;38377;47.418;18.882;2022-11-04T11:23:34;93.38;;;47.85;;
38379;SDS011;38377;47.418;18.882;2022-11-04T11:26:06;71.60;;;43.70;;
38379;SDS011;38377;47.418;18.882;2022-11-04T11:28:33;79.68;;;45.97;;
38379;SDS011;38377;47.418;18.882;2022-11-04T11:31:03;78.72;;;44.97;;
38379;SDS011;38377;47.418;18.882;2022-11-04T11:33:36;76.22;;;43.40;;
38379;SDS011;38377;47.418;18.882;2022-11-04T11:36:07;77.13;;;44.33;;
38379;SDS011;38377;47.418;18.882;2022-11-04T11:39:26;75.53;;;42.85;;
38379;SDS011;38377;47.418;18.882;2022-11-04T11:41:34;84.72;;;46.92;;
38379;SDS011;38377;47.418;18.882;2022-11-04T11:44:17;79.80;;;45.75;;
38379;SDS011;38377;47.418;18.882;2022-11-04T11:46:50;79.97;;;45.45;;
38379;SDS011;38377;47.418;18.882;2022-11-04T11:49:24;76.45;;;45.30;;
38379;SDS011;38377;47.418;18.882;2022-11-04T11:51:53;80.97;;;45.47;;
38379;SDS011;38377;47.418;18.882;2022-11-04T11:54:21;80.82;;;45.15;;
38379;SDS011;38377;47.418;18.882;2022-11-04T11:56:54;79.97;;;45.80;;
38379;SDS011;38377;47.418;18.882;2022-11-04T12:04:45;73.15;;;43.58;;
38379;SDS011;38377;47.418;18.882;2022-11-04T12:23:49;73.97;;;43.90;;
38379;SDS011;38377;47.418;18.882;2022-11-04T12:26:30;73.97;;;45.30;;
38379;SDS011;38377;47.418;18.882;2022-11-04T12:29:17;79.60;;;45.95;;
38379;SDS011;38377;47.418;18.882;2022-11-04T12:42:51;73.00;;;46.20;;
38379;SDS011;38377;47.418;18.882;2022-11-04T12:45:59;71.68;;;44.22;;
38379;SDS011;38377;47.418;18.882;2022-11-04T12:56:45;73.90;;;46.28;;
38379;SDS011;38377;47.418;18.882;2022-11-04T12:59:38;69.70;;;44.53;;
38379;SDS011;38377;47.418;18.882;2022-11-04T13:02:19;74.78;;;47.80;;
38379;SDS011;38377;47.418;18.882;2022-11-04T13:05:02;70.53;;;44.13;;
38379;SDS011;38377;47.418;18.882;2022-11-04T13:07:40;71.32;;;44.33;;
38379;SDS011;38377;47.418;18.882;2022-11-04T13:10:38;71.97;;;44.25;;
38379;SDS011;38377;47.418;18.882;2022-11-04T13:13:12;71.25;;;45.88;;
38379;SDS011;38377;47.418;18.882;2022-11-04T13:15:45;69.22;;;43.10;;
38379;SDS011;38377;47.418;18.882;2022-11-04T13:18:19;72.60;;;43.38;;
38379;SDS011;38377;47.418;18.882;2022-11-04T13:20:51;75.03;;;44.65;;
38379;SDS011;38377;47.418;18.882;2022-11-04T13:23:25;71.80;;;45.88;;
38379;SDS011;38377;47.418;18.882;2022-11-04T13:26:05;77.20;;;45.20;;
38379;SDS011;38377;47.418;18.882;2022-11-04T13:28:37;70.95;;;44.50;;
38379;SDS011;38377;47.418;18.882;2022-11-04T13:39:56;70.05;;;44.25;;
38379;SDS011;38377;47.418;18.882;2022-11-04T13:45:48;71.38;;;46.03;;
38379;SDS011;38377;47.418;18.882;2022-11-04T13:48:20;76.85;;;45.22;;
38379;SDS011;38377;47.418;18.882;2022-11-04T13:50:54;79.47;;;47.47;;
38379;SDS011;38377;47.418;18.882;2022-11-04T13:53:38;73.68;;;46.00;;
38379;SDS011;38377;47.418;18.882;2022-11-04T13:58:30;65.80;;;42.05;;
38379;SDS011;38377;47.418;18.882;2022-11-04T14:03:53;71.47;;;46.05;;
38379;SDS011;38377;47.418;18.882;2022-11-04T14:14:54;68.13;;;43.00;;
38379;SDS011;38377;47.418;18.882;2022-11-04T14:25:18;70.57;;;43.47;;
38379;SDS011;38377;47.418;18.882;2022-11-04T14:27:52;71.38;;;43.35;;
38379;SDS011;38377;47.418;18.882;2022-11-04T14:33:07;69.07;;;43.55;;
38379;SDS011;38377;47.418;18.882;2022-11-04T14:35:54;74.07;;;45.05;;
38379;SDS011;38377;47.418;18.882;2022-11-04T14:38:25;67.70;;;40.92;;
38379;SDS011;38377;47.418;18.882;2022-11-04T14:43:39;71.90;;;42.50;;
38379;SDS011;38377;47.418;18.882;2022-11-04T14:46:07;72.75;;;43.83;;
38379;SDS011;38377;47.418;18.882;2022-11-04T14:48:36;77.38;;;45.25;;
38379;SDS011;38377;47.418;18.882;2022-11-04T14:51:17;69.00;;;41.95;;
38379;SDS011;38377;47.418;18.882;2022-11-04T14:53:48;71.68;;;42.60;;
38379;SDS011;38377;47.418;18.882;2022-11-04T14:56:19;68.68;;;42.88;;
38379;SDS011;38377;47.418;18.882;2022-11-04T14:58:55;75.80;;;43.28;;
38379;SDS011;38377;47.418;18.882;2022-11-04T15:01:24;72.10;;;40.85;;
38379;SDS011;38377;47.418;18.882;2022-11-04T15:03:53;70.55;;;43.05;;
38379;SDS011;38377;47.418;18.882;2022-11-04T15:06:25;78.70;;;46.38;;
38379;SDS011;38377;47.418;18.882;2022-11-04T15:08:52;72.88;;;45.22;;
38379;SDS011;38377;47.418;18.882;2022-11-04T15:11:20;79.45;;;47.35;;
38379;SDS011;38377;47.418;18.882;2022-11-04T15:14:25;76.45;;;44.45;;
38379;SDS011;38377;47.418;18.882;2022-11-04T15:16:52;83.45;;;45.00;;
38379;SDS011;38377;47.418;18.882;2022-11-04T15:19:29;76.78;;;45.13;;
38379;SDS011;38377;47.418;18.882;2022-11-04T15:21:57;74.65;;;44.58;;
38379;SDS011;38377;47.418;18.882;2022-11-04T15:24:25;69.70;;;41.88;;
38379;SDS011;38377;47.418;18.882;2022-11-04T15:26:51;76.57;;;43.03;;
38379;SDS011;38377;47.418;18.882;2022-11-04T15:29:19;71.43;;;44.42;;
38379;SDS011;38377;47.418;18.882;2022-11-04T15:31:54;63.55;;;40.38;;
38379;SDS011;38377;47.418;18.882;2022-11-04T15:34:21;73.65;;;42.88;;
38379;SDS011;38377;47.418;18.882;2022-11-04T15:36:47;74.63;;;44.45;;
38379;SDS011;38377;47.418;18.882;2022-11-04T15:39:15;66.75;;;41.00;;
38379;SDS011;38377;47.418;18.882;2022-11-04T15:41:48;70.32;;;41.65;;
38379;SDS011;38377;47.418;18.882;2022-11-04T15:44:35;64.65;;;40.17;;
38379;SDS011;38377;47.418;18.882;2022-11-04T15:49:44;61.72;;;38.08;;
38379;SDS011;38377;47.418;18.882;2022-11-04T15:52:24;68.05;;;39.75;;
38379;SDS011;38377;47.418;18.882;2022-11-04T15:54:55;65.47;;;40.28;;
38379;SDS011;38377;47.418;18.882;2022-11-04T16:02:44;72.22;;;42.53;;
38379;SDS011;38377;47.418;18.882;2022-11-04T16:10:35;64.47;;;40.20;;
38379;SDS011;38377;47.418;18.882;2022-11-04T16:13:02;68.13;;;39.78;;
38379;SDS011;38377;47.418;18.882;2022-11-04T16:15:41;63.08;;;38.78;;
38379;SDS011;38377;47.418;18.882;2022-11-04T16:20:54;56.63;;;35.70;;
38379;SDS011;38377;47.418;18.882;2022-11-04T16:23:21;57.95;;;35.22;;
38379;SDS011;38377;47.418;18.882;2022-11-04T16:25:55;55.53;;;36.50;;
38379;SDS011;38377;47.418;18.882;2022-11-04T16:28:26;55.08;;;36.42;;
38379;SDS011;38377;47.418;18.882;2022-11-04T16:33:27;56.78;;;37.95;;
38379;SDS011;38377;47.418;18.882;2022-11-04T16:35:52;56.78;;;36.53;;
38379;SDS011;38377;47.418;18.882;2022-11-04T16:38:18;55.67;;;34.72;;
38379;SDS011;38377;47.418;18.882;2022-11-04T16:40:45;55.15;;;37.53;;
38379;SDS011;38377;47.418;18.882;2022-11-04T16:43:13;57.78;;;36.58;;
38379;SDS011;38377;47.418;18.882;2022-11-04T16:45:43;63.42;;;38.70;;
38379;SDS011;38377;47.418;18.882;2022-11-04T16:48:17;51.80;;;35.88;;
38379;SDS011;38377;47.418;18.882;2022-11-04T16:50:44;54.53;;;35.92;;
38379;SDS011;38377;47.418;18.882;2022-11-04T16:53:11;53.85;;;34.92;;
38379;SDS011;38377;47.418;18.882;2022-11-04T16:55:41;60.55;;;38.20;;
38379;SDS011;38377;47.418;18.882;2022-11-04T16:58:12;65.57;;;41.67;;
38379;SDS011;38377;47.418;18.882;2022-11-04T17:00:41;59.78;;;38.05;;
38379;SDS011;38377;47.418;18.882;2022-11-04T17:03:17;53.45;;;36.78;;
38379;SDS011;38377;47.418;18.882;2022-11-04T17:05:48;57.20;;;34.78;;
38379;SDS011;38377;47.418;18.882;2022-11-04T17:08:15;51.30;;;35.88;;
38379;SDS011;38377;47.418;18.882;2022-11-04T17:10:40;53.75;;;35.75;;
38379;SDS011;38377;47.418;18.882;2022-11-04T17:13:08;47.67;;;33.70;;
38379;SDS011;38377;47.418;18.882;2022-11-04T17:15:34;52.15;;;34.55;;
38379;SDS011;38377;47.418;18.882;2022-11-04T17:17:59;48.72;;;33.35;;